createdAt,value
2022-11-07T00:02:51.206Z,8.75
2022-11-07T00:07:53.055Z,8.10
2022-11-07T00:12:54.892Z,7.90
2022-11-07T00:17:58.535Z,8.35
2022-11-07T00:23:00.292Z,8.23
2022-11-07T00:28:02.183Z,7.68
2022-11-07T00:33:04.277Z,8.10
2022-11-07T00:38:06.070Z,8.02
2022-11-07T00:43:07.860Z,8.05
2022-11-07T00:48:09.684Z,7.82
2022-11-07T00:53:11.756Z,8.63
2022-11-07T00:58:14.629Z,8.32
2022-11-07T01:03:35.042Z,7.35
2022-11-07T01:08:37.292Z,7.85
2022-11-07T01:13:39.394Z,7.72
2022-11-07T01:18:41.279Z,7.82
2022-11-07T01:23:43.093Z,7.90
2022-11-07T01:28:45.077Z,7.93
2022-11-07T01:33:47.315Z,8.13
2022-11-07T01:38:49.651Z,8.50
2022-11-07T01:43:51.592Z,7.25
2022-11-07T01:48:58.240Z,7.72
2022-11-07T01:54:01.429Z,6.95
2022-11-07T01:59:04.144Z,7.38
2022-11-07T02:04:06.505Z,7.80
2022-11-07T02:09:08.315Z,7.53
2022-11-07T02:14:16.353Z,7.47
2022-11-07T02:19:43.332Z,8.02
2022-11-07T02:24:47.613Z,7.85
2022-11-07T02:29:55.387Z,9.48
2022-11-07T02:34:59.097Z,8.43
2022-11-07T02:40:03.364Z,8.52
2022-11-07T02:45:05.841Z,9.07
2022-11-07T02:50:09.661Z,8.55
2022-11-07T02:55:13.041Z,8.82
2022-11-07T03:00:16.026Z,9.95
2022-11-07T03:05:19.893Z,10.30
2022-11-07T03:10:21.655Z,10.85
2022-11-07T03:15:23.602Z,11.80
2022-11-07T03:20:25.392Z,12.48
2022-11-07T03:25:27.190Z,11.98
2022-11-07T03:30:29.005Z,12.95
2022-11-07T03:35:30.845Z,15.20
2022-11-07T03:40:32.614Z,14.82
2022-11-07T03:45:34.401Z,15.18
2022-11-07T03:50:36.190Z,15.90
2022-11-07T03:55:37.949Z,16.85
2022-11-07T04:00:39.726Z,16.60
2022-11-07T04:05:41.561Z,17.30
2022-11-07T04:10:43.334Z,21.48
2022-11-07T04:16:05.001Z,18.55
2022-11-07T04:21:06.710Z,19.33
2022-11-07T04:26:27.117Z,18.52
2022-11-07T04:31:28.925Z,19.17
2022-11-07T04:36:30.654Z,18.60
2022-11-07T04:41:32.525Z,18.17
2022-11-07T04:46:34.307Z,21.02
2022-11-07T04:51:43.031Z,19.42
2022-11-07T05:01:46.515Z,19.90
2022-11-07T05:06:48.325Z,21.08
2022-11-07T05:11:50.164Z,19.02
2022-11-07T05:16:54.146Z,21.65
2022-11-07T05:22:14.323Z,21.63
2022-11-07T05:27:20.138Z,21.42
2022-11-07T05:32:21.970Z,21.40
2022-11-07T05:37:23.737Z,20.77
2022-11-07T05:42:25.743Z,20.92
2022-11-07T05:47:27.477Z,20.63
2022-11-07T05:52:29.227Z,18.52
2022-11-07T05:57:31.307Z,19.08
2022-11-07T06:02:33.241Z,18.88
2022-11-07T06:07:36.658Z,18.88
2022-11-07T06:12:38.494Z,18.38
2022-11-07T06:17:40.360Z,18.08
2022-11-07T06:22:42.151Z,18.00
2022-11-07T06:27:43.899Z,16.73
2022-11-07T06:32:46.096Z,17.80
2022-11-07T06:37:47.864Z,17.50
2022-11-07T06:42:49.645Z,16.52
2022-11-07T06:47:54.915Z,16.85
2022-11-07T06:53:00.668Z,16.52
2022-11-07T06:58:03.242Z,17.13
2022-11-07T07:03:05.992Z,16.83
2022-11-07T07:08:10.351Z,17.75
2022-11-07T07:13:13.906Z,16.98
2022-11-07T07:18:15.975Z,16.52
2022-11-07T07:23:20.243Z,16.77
2022-11-07T07:28:22.172Z,17.25
2022-11-07T07:33:23.913Z,15.90
2022-11-07T07:38:25.665Z,16.83
2022-11-07T07:43:28.371Z,15.52
2022-11-07T07:48:31.360Z,16.15
2022-11-07T07:53:33.151Z,15.18
2022-11-07T07:58:35.125Z,16.13
2022-11-07T08:03:59.596Z,15.85
2022-11-07T08:08:59.583Z,14.73
2022-11-07T08:14:01.942Z,15.75
2022-11-07T08:19:03.726Z,16.25
2022-11-07T08:24:05.910Z,14.55
2022-11-07T08:29:07.838Z,15.27
2022-11-07T08:34:09.614Z,14.77
2022-11-07T08:39:11.610Z,14.93
2022-11-07T08:44:13.440Z,16.70
2022-11-07T08:49:15.408Z,14.05
2022-11-07T08:54:17.167Z,14.35
2022-11-07T08:59:19.116Z,14.70
2022-11-07T09:04:20.927Z,14.48
2022-11-07T09:09:22.955Z,13.80
2022-11-07T09:14:24.704Z,12.68
2022-11-07T09:19:27.951Z,11.95
2022-11-07T09:24:29.767Z,11.07
2022-11-07T09:29:31.499Z,9.77
2022-11-07T09:34:33.347Z,8.60
2022-11-07T09:39:35.115Z,8.80
2022-11-07T09:44:51.856Z,8.98
2022-11-07T09:49:58.603Z,9.35
2022-11-07T09:55:34.171Z,8.02
2022-11-07T10:00:35.948Z,8.88
2022-11-07T10:05:53.647Z,9.43
2022-11-07T10:11:12.024Z,9.25
2022-11-07T10:16:43.377Z,8.07
2022-11-07T10:22:16.370Z,8.75
2022-11-07T10:27:20.583Z,8.77
2022-11-07T10:32:36.166Z,9.43
2022-11-07T10:37:38.002Z,9.00
2022-11-07T10:42:39.770Z,8.80
2022-11-07T10:47:42.148Z,7.97
2022-11-07T10:53:14.803Z,8.63
2022-11-07T10:58:29.943Z,8.30
2022-11-07T11:03:44.380Z,8.43
2022-11-07T11:08:49.549Z,8.77
2022-11-07T11:14:11.546Z,8.15
2022-11-07T11:19:27.411Z,8.13
2022-11-07T11:24:37.465Z,8.52
2022-11-07T11:30:02.159Z,9.23
2022-11-07T11:35:25.754Z,9.35
2022-11-07T11:40:32.628Z,10.25
2022-11-07T11:45:56.895Z,11.00
2022-11-07T11:51:06.476Z,10.07
2022-11-07T11:56:08.175Z,11.57
2022-11-07T12:01:37.659Z,9.98
2022-11-07T12:06:43.530Z,8.95
2022-11-07T12:12:08.326Z,8.60
2022-11-07T12:17:28.572Z,7.80
2022-11-07T12:23:00.726Z,9.52
2022-11-07T12:28:17.741Z,7.65
2022-11-07T12:33:22.491Z,7.22
2022-11-07T12:38:33.090Z,8.05
2022-11-07T12:43:59.168Z,7.07
2022-11-07T12:49:37.975Z,7.20
2022-11-07T12:54:48.781Z,7.68
2022-11-07T13:00:07.283Z,7.45
2022-11-07T13:05:35.305Z,6.50
2022-11-07T13:11:09.601Z,7.45
2022-11-07T13:16:28.473Z,6.50
2022-11-07T13:21:40.498Z,6.35
2022-11-07T13:26:47.413Z,7.50
2022-11-07T13:32:05.043Z,6.97
2022-11-07T13:37:11.784Z,6.82
2022-11-07T13:42:17.382Z,6.88
2022-11-07T13:47:26.309Z,6.75
2022-11-07T13:52:48.520Z,7.13
2022-11-07T13:57:57.775Z,5.78
2022-11-07T14:03:00.589Z,6.22
2022-11-07T14:08:14.726Z,5.85
2022-11-07T14:13:39.776Z,5.82
2022-11-07T14:19:04.410Z,6.45
2022-11-07T14:24:23.106Z,6.40
2022-11-07T14:34:26.656Z,7.90
2022-11-07T14:39:31.247Z,4.97
2022-11-07T14:44:55.826Z,5.78
2022-11-07T14:49:59.544Z,5.45
2022-11-07T14:55:13.495Z,6.78
2022-11-07T15:00:18.285Z,5.25
2022-11-07T15:05:42.777Z,5.40
2022-11-07T15:10:45.007Z,6.07
2022-11-07T15:15:47.539Z,5.20
2022-11-07T15:21:01.361Z,5.15
2022-11-07T15:26:12.949Z,5.50
2022-11-07T15:31:39.452Z,5.30
2022-11-07T15:36:41.414Z,6.30
2022-11-07T15:41:43.262Z,5.95
2022-11-07T15:46:46.489Z,5.93
2022-11-07T15:51:48.196Z,6.95
2022-11-07T15:56:54.440Z,6.93
2022-11-07T16:01:59.396Z,6.90
2022-11-07T16:07:01.354Z,7.97
2022-11-07T16:12:03.127Z,9.93
2022-11-07T16:17:04.930Z,9.80
2022-11-07T16:22:06.856Z,9.27
2022-11-07T16:27:14.326Z,9.45
2022-11-07T16:32:18.318Z,10.40
2022-11-07T16:37:20.491Z,10.20
2022-11-07T16:42:22.356Z,10.95
2022-11-07T16:47:24.087Z,10.98
2022-11-07T16:52:28.147Z,12.13
2022-11-07T16:57:34.472Z,12.10
2022-11-07T17:02:36.284Z,13.00
2022-11-07T17:07:38.554Z,12.32
2022-11-07T17:12:40.440Z,12.27
2022-11-07T17:17:42.258Z,13.80
2022-11-07T17:22:44.122Z,13.63
2022-11-07T17:27:46.180Z,14.55
2022-11-07T17:32:47.953Z,15.07
2022-11-07T17:37:49.777Z,14.50
2022-11-07T17:42:51.630Z,14.63
2022-11-07T17:47:53.430Z,14.25
2022-11-07T17:52:55.367Z,15.73
2022-11-07T17:57:57.142Z,15.65
2022-11-07T18:02:59.006Z,16.42
2022-11-07T18:08:01.429Z,16.13
2022-11-07T18:13:03.187Z,16.33
2022-11-07T18:18:10.614Z,16.00
2022-11-07T18:23:12.747Z,16.37
2022-11-07T18:28:14.810Z,16.33
2022-11-07T18:33:16.822Z,17.75
2022-11-07T18:38:18.845Z,17.25
2022-11-07T18:43:20.904Z,18.10
2022-11-07T18:48:24.214Z,18.48
2022-11-07T18:53:27.791Z,19.50
2022-11-07T18:58:31.115Z,19.15
2022-11-07T19:03:34.259Z,18.98
2022-11-07T19:08:38.270Z,18.83
2022-11-07T19:13:42.237Z,18.35
2022-11-07T19:18:49.420Z,19.92
2022-11-07T19:23:51.690Z,18.55
2022-11-07T19:28:57.416Z,19.17
2022-11-07T19:33:59.305Z,19.42
2022-11-07T19:39:03.033Z,20.50
2022-11-07T19:44:05.071Z,19.60
2022-11-07T19:49:06.850Z,20.02
2022-11-07T19:54:09.992Z,19.92
2022-11-07T19:59:12.025Z,19.10
2022-11-07T20:04:13.734Z,19.50
2022-11-07T20:09:15.750Z,19.75
2022-11-07T20:14:17.607Z,21.67
2022-11-07T20:19:19.360Z,25.70
2022-11-07T20:24:21.179Z,25.88
2022-11-07T20:29:23.050Z,24.75
2022-11-07T20:34:24.816Z,23.77
2022-11-07T20:39:27.790Z,22.42
2022-11-07T20:44:29.489Z,22.98
2022-11-07T20:49:31.278Z,23.02
2022-11-07T20:54:34.282Z,23.38
2022-11-07T20:59:36.075Z,23.30
2022-11-07T21:05:02.794Z,24.10
2022-11-07T21:09:59.749Z,26.80
2022-11-07T21:15:01.634Z,26.80
2022-11-07T21:20:04.254Z,26.33
2022-11-07T21:25:06.919Z,27.05
2022-11-07T21:30:09.329Z,26.95
2022-11-07T21:35:13.353Z,27.80
2022-11-07T21:40:15.094Z,29.25
2022-11-07T21:45:16.833Z,29.02
2022-11-07T21:50:42.781Z,28.55
2022-11-07T21:55:40.322Z,29.95
2022-11-07T22:00:42.122Z,29.73
2022-11-07T22:05:44.132Z,29.95
2022-11-07T22:10:45.850Z,29.23
2022-11-07T22:15:47.751Z,28.33
2022-11-07T22:20:49.594Z,29.02
2022-11-07T22:25:51.522Z,28.67
2022-11-07T22:30:53.278Z,28.65
2022-11-07T22:35:57.157Z,31.60
2022-11-07T22:40:59.553Z,30.35
2022-11-07T22:46:06.904Z,30.25
2022-11-07T22:51:13.851Z,33.15
2022-11-07T22:56:18.111Z,32.63
2022-11-07T23:01:24.640Z,36.00
2022-11-07T23:06:27.909Z,34.00
2022-11-07T23:11:50.797Z,34.53
2022-11-07T23:16:55.365Z,34.92
2022-11-07T23:21:57.287Z,36.22
2022-11-07T23:26:59.210Z,35.47
2022-11-07T23:32:00.955Z,36.55
2022-11-07T23:37:03.230Z,36.92
2022-11-07T23:42:05.001Z,35.20
2022-11-07T23:47:26.775Z,33.75
2022-11-07T23:52:28.874Z,32.63
2022-11-07T23:57:33.761Z,32.05
